SARM/MCS METAR and TAF weather

Enter ICAO airport designator
Station Type Date Time Source
SARM METAR 2019/06/12 09:30 UTC NOAA

SARM 120930Z 05007KT 9999 TS FEW050CB OVC100 18/17 Q1011


Station Type Date Time Source
SARM Decoded METAR 2019/06/12 09:30 UTC NOAA

Monte Caseros Aerodrome, Argentina (SARM) 30-16S 057-39W 54M
Jun 12, 2019 - 05:30 AM EDT / 2019.06.12 0930 UTC
Wind: from the NE (050 degrees) at 8 MPH (7 KT):0
Visibility: greater than 7 mile(s):0
Sky conditions: overcast
Weather: thunder; Cumulonimbus clouds observed
Temperature: 64 F (18 C)
Dew Point: 62 F (17 C)
Relative Humidity: 93%
Pressure (altimeter): 29.85 in. Hg (1011 hPa)
ob: SARM 120930Z 05007KT 9999 TS FEW050CB OVC100 18/17 Q1011
cycle: 9

Station Type Date Time Source
SARM TAF UTC NOAA

Error!

Example: see airport list